Time;durP1;ratioP1;P1;durP2;ratioP2;P2;SDS_P1;SDS_P2;PMS_P1;PMS_P2;Temp;Humidity;BMP_temperature;BMP_pressure;BME280_temperature;BME280_humidity;BME280_pressure;Samples;Min_cycle;Max_cycle;Signal;HPM_P1;HPM_P2
2023/05/27 00:00:52;;;;;;;;;;;;;;;8.54;66.01;102418.36;107093;1262;67602;-85
2023/05/27 00:03:32;;;;;;;;;;;;;;;8.55;65.99;102417.50;106877;1258;124947;-85
2023/05/27 00:06:04;;;;;;;;;;;;;;;8.54;66.12;102420.46;106977;1263;61385;-85
2023/05/27 00:08:31;;;;;;;;;;;;;;;8.53;66.19;102421.45;107201;1258;124128;-85
2023/05/27 00:11:02;;;;;;;;;;;;;;;8.53;66.25;102424.20;107238;1262;73498;-85
2023/05/27 00:13:30;;;;;;;;;;;;;;;8.50;66.29;102425.14;107299;1257;69237;-85
2023/05/27 00:16:06;;;;;;;;;;;;;;;8.50;66.48;102422.27;107175;1257;124054;-85
2023/05/27 00:18:47;;;;;;;;;;;;;;;8.48;66.45;102418.66;107159;1257;60068;-85
2023/05/27 00:21:21;;;;;;;;;;;;;;;8.46;66.57;102420.12;107149;1257;124201;-84
2023/05/27 00:23:51;;;;;;;;;;;;;;;8.44;66.74;102421.73;107410;1257;74715;-84
2023/05/27 00:26:21;;;;;;;;;;;;;;;8.40;66.83;102421.65;107140;1257;124767;-85
2023/05/27 00:28:49;;;;;;;;;;;;;;;8.36;66.87;102426.35;107507;1257;71427;-83
2023/05/27 00:31:16;;;;;;;;;;;;;;;8.32;66.93;102427.33;107338;1257;60099;-83
2023/05/27 00:33:51;;;;;;;;;;;;;;;8.29;67.08;102426.05;107204;1257;124291;-83
2023/05/27 00:36:22;;;;;;;;;;;;;;;8.26;67.23;102424.15;107150;1260;74699;-84
2023/05/27 00:38:49;;;;;;;;;;;;;;;8.24;67.26;102422.21;107266;1256;124069;-83
2023/05/27 00:41:16;;;;;;;;;;;;;;;8.21;67.40;102420.67;107517;1257;71371;-84
2023/05/27 00:43:45;;;;;;;;;;;;;;;8.18;67.47;102420.87;107224;1257;61237;-84
2023/05/27 00:46:12;;;;;;;;;;;;;;;8.15;67.62;102417.90;107249;1260;61148;-84
2023/05/27 00:48:39;;;;;;;;;;;;;;;8.12;67.73;102418.23;107156;1256;74415;-84
2023/05/27 00:51:06;;;;;;;;;;;;;;;8.09;67.82;102426.06;107013;1257;123889;-84
2023/05/27 00:53:39;;;;;;;;;;;;;;;8.07;67.93;102424.73;107104;1257;72685;-84
2023/05/27 00:56:15;;;;;;;;;;;;;;;8.04;67.98;102422.04;107173;1257;124502;-84
2023/05/27 00:58:45;;;;;;;;;;;;;;;8.01;68.07;102422.39;107444;1257;60587;-85
2023/05/27 01:01:12;;;;;;;;;;;;;;;7.97;68.17;102424.30;107502;1257;74645;-84
2023/05/27 01:03:41;;;;;;;;;;;;;;;7.94;68.26;102425.52;107409;1257;124779;-85
2023/05/27 01:06:30;;;;;;;;;;;;;;;7.92;68.28;102430.96;107528;1257;72713;-84
2023/05/27 01:09:11;;;;;;;;;;;;;;;7.90;68.53;102430.50;107388;1260;124743;-84
2023/05/27 01:11:45;;;;;;;;;;;;;;;7.89;68.62;102430.23;107111;1258;60977;-83
2023/05/27 01:14:13;;;;;;;;;;;;;;;7.88;68.67;102428.98;107456;1257;125615;-84
2023/05/27 01:16:43;;;;;;;;;;;;;;;7.88;68.66;102433.14;107307;1256;66221;-84
2023/05/27 01:19:18;;;;;;;;;;;;;;;7.88;68.73;102437.50;107061;1257;71426;-84
2023/05/27 01:21:56;;;;;;;;;;;;;;;7.86;68.84;102437.06;106888;1262;125464;-90
2023/05/27 01:24:25;;;;;;;;;;;;;;;7.87;68.93;102442.85;106849;1257;61235;-90
2023/05/27 01:27:01;;;;;;;;;;;;;;;7.86;69.02;102440.20;107018;1257;125369;-89
2023/05/27 01:29:34;;;;;;;;;;;;;;;7.87;69.13;102445.33;107014;1256;67595;-92
2023/05/27 01:32:16;;;;;;;;;;;;;;;7.87;69.11;102447.20;106970;1257;124934;-92
2023/05/27 01:35:12;;;;;;;;;;;;;;;7.85;69.14;102443.98;107261;1257;61421;-90
2023/05/27 01:38:14;;;;;;;;;;;;;;;7.85;69.18;102445.00;107151;1258;60389;-88
2023/05/27 01:40:48;;;;;;;;;;;;;;;7.84;69.20;102444.74;107363;1260;72777;-88
2023/05/27 01:43:21;;;;;;;;;;;;;;;7.83;69.25;102450.09;107347;1256;68078;-89
2023/05/27 01:45:50;;;;;;;;;;;;;;;7.82;69.44;102450.92;107011;1257;124155;-89
2023/05/27 01:48:38;;;;;;;;;;;;;;;7.81;69.44;102455.03;106984;1257;61385;-89
2023/05/27 01:51:06;;;;;;;;;;;;;;;7.78;69.45;102456.30;107326;1257;124219;-90
2023/05/27 01:53:35;;;;;;;;;;;;;;;7.76;69.44;102455.81;107306;1263;73874;-90
2023/05/27 01:56:02;;;;;;;;;;;;;;;7.73;69.54;102454.95;107193;1256;124338;-87
2023/05/27 01:58:40;;;;;;;;;;;;;;;7.71;69.61;102455.70;107329;1257;72699;-88
2023/05/27 02:01:13;;;;;;;;;;;;;;;7.69;69.70;102452.55;107256;1256;61253;-88
2023/05/27 02:03:40;;;;;;;;;;;;;;;7.68;69.67;102457.37;106960;1260;124044;-89
2023/05/27 02:06:08;;;;;;;;;;;;;;;7.65;69.71;102458.60;107497;1256;74548;-89
2023/05/27 02:08:39;;;;;;;;;;;;;;;7.63;69.76;102456.20;107205;1257;124191;-90
2023/05/27 02:11:08;;;;;;;;;;;;;;;7.60;69.80;102455.16;107072;1256;72005;-89
2023/05/27 02:13:52;;;;;;;;;;;;;;;7.58;69.97;102455.55;107178;1256;60179;-89
2023/05/27 02:16:25;;;;;;;;;;;;;;;7.56;70.03;102454.93;107311;1255;61000;-89
2023/05/27 02:18:58;;;;;;;;;;;;;;;7.55;70.16;102454.82;107365;1257;74700;-88
2023/05/27 02:21:32;;;;;;;;;;;;;;;7.53;70.31;102455.77;107252;1257;123795;-86
2023/05/27 02:24:14;;;;;;;;;;;;;;;7.52;70.32;102456.38;107049;1256;72712;-89
2023/05/27 02:26:48;;;;;;;;;;;;;;;7.53;70.36;102459.20;107070;1257;123970;-90
2023/05/27 02:29:15;;;;;;;;;;;;;;;7.53;70.41;102463.91;107200;1261;60073;-90
2023/05/27 02:31:42;;;;;;;;;;;;;;;7.54;70.57;102470.65;107032;1257;73385;-91
2023/05/27 02:34:15;;;;;;;;;;;;;;;7.54;70.53;102472.08;106962;1257;123732;-91
2023/05/27 02:37:11;;;;;;;;;;;;;;;7.57;70.62;102475.22;107042;1258;71109;-92
2023/05/27 02:39:56;;;;;;;;;;;;;;;7.61;70.72;102475.25;106998;1257;124471;-91
2023/05/27 02:42:29;;;;;;;;;;;;;;;7.65;70.76;102477.12;106982;1256;61201;-90
2023/05/27 02:45:02;;;;;;;;;;;;;;;7.70;70.75;102479.91;107059;1257;124915;-91
2023/05/27 02:47:30;;;;;;;;;;;;;;;7.77;70.79;102479.64;107021;1257;65779;-91
2023/05/27 02:49:58;;;;;;;;;;;;;;;7.84;70.80;102480.75;107052;1257;71334;-88
2023/05/27 02:52:39;;;;;;;;;;;;;;;7.92;70.85;102480.80;107022;1257;60493;-88
2023/05/27 02:55:12;;;;;;;;;;;;;;;8.02;70.76;102486.11;106956;1257;60261;-90
2023/05/27 02:57:42;;;;;;;;;;;;;;;8.11;70.72;102482.81;106897;1257;124692;-90
2023/05/27 03:00:22;;;;;;;;;;;;;;;8.20;70.68;102487.05;107093;1257;66899;-90
2023/05/27 03:02:49;;;;;;;;;;;;;;;8.28;70.60;102483.91;107228;1260;124601;-90
2023/05/27 03:05:16;;;;;;;;;;;;;;;8.38;70.54;102488.02;107235;1257;61248;-90
2023/05/27 03:07:55;;;;;;;;;;;;;;;8.50;70.49;102487.52;106825;1257;61735;-89
2023/05/27 03:10:42;;;;;;;;;;;;;;;8.63;70.29;102487.11;106854;1257;76810;-90
2023/05/27 03:13:11;;;;;;;;;;;;;;;8.79;70.26;102486.66;107280;1256;66852;-90
2023/05/27 03:18:54;;;;;;;;;;;;;;;9.09;69.81;102488.66;107327;1256;61238;-90
2023/05/27 03:21:21;;;;;;;;;;;;;;;9.22;69.51;102491.34;107193;1256;125028;-90
2023/05/27 03:24:07;;;;;;;;;;;;;;;9.36;69.37;102493.02;107193;1257;74260;-90
2023/05/27 03:26:36;;;;;;;;;;;;;;;9.59;69.25;102492.52;107194;1256;124885;-90
2023/05/27 03:29:18;;;;;;;;;;;;;;;10.00;69.64;102493.46;107086;1256;72336;-90
2023/05/27 03:31:45;;;;;;;;;;;;;;;11.01;70.06;102497.05;107146;1256;60218;-92
2023/05/27 03:34:14;;;;;;;;;;;;;;;12.11;69.47;102494.50;107125;1256;125035;-91
2023/05/27 03:36:46;;;;;;;;;;;;;;;12.95;67.98;102490.91;107076;1257;74230;-91
2023/05/27 03:39:21;;;;;;;;;;;;;;;13.53;66.58;102492.99;107026;1257;124687;-90
2023/05/27 03:42:05;;;;;;;;;;;;;;;14.25;66.09;102490.51;107178;1256;72605;-90
2023/05/27 03:44:33;;;;;;;;;;;;;;;15.39;65.23;102490.14;107049;1256;124487;-92
2023/05/27 03:47:05;;;;;;;;;;;;;;;16.40;63.72;102488.68;107338;1256;61238;-90
2023/05/27 03:49:35;;;;;;;;;;;;;;;17.40;62.22;102483.55;107133;1256;74646;-90
2023/05/27 03:52:06;;;;;;;;;;;;;;;18.28;60.73;102477.95;107143;1261;124187;-92
2023/05/27 03:57:55;;;;;;;;;;;;;;;19.85;56.64;102478.63;107119;1256;124260;-92
2023/05/27 04:00:22;;;;;;;;;;;;;;;20.26;55.60;102479.70;107342;1256;61338;-95
2023/05/27 04:16:48;;;;;;;;;;;;;;;23.91;48.17;102494.50;106759;1263;61394;-91
2023/05/27 04:19:15;;;;;;;;;;;;;;;24.23;46.82;102490.64;106776;1263;74634;-92
2023/05/27 04:21:51;;;;;;;;;;;;;;;24.40;46.09;102487.32;106638;1264;124478;-91
2023/05/27 04:24:39;;;;;;;;;;;;;;;24.68;45.25;102491.86;106610;1264;72704;-89
2023/05/27 04:27:40;;;;;;;;;;;;;;;25.24;44.54;102496.33;106719;1264;124404;-92
2023/05/27 04:30:15;;;;;;;;;;;;;;;25.81;43.71;102495.26;106950;1264;62089;-92
2023/05/27 04:32:53;;;;;;;;;;;;;;;26.52;42.97;102496.60;107012;1263;124570;-91
2023/05/27 04:35:23;;;;;;;;;;;;;;;27.14;42.13;102497.45;107242;1263;67241;-90
2023/05/27 04:37:55;;;;;;;;;;;;;;;27.70;41.19;102499.40;106887;1264;73191;-91
2023/05/27 04:40:53;;;;;;;;;;;;;;;28.27;40.38;102500.27;106794;1263;123896;-89
2023/05/27 04:43:41;;;;;;;;;;;;;;;28.86;39.37;102503.30;107058;1268;60250;-88
2023/05/27 04:46:47;;;;;;;;;;;;;;;29.40;38.55;102505.58;106796;1264;125237;-88
2023/05/27 04:49:46;;;;;;;;;;;;;;;29.85;37.60;102504.76;107152;1257;59586;-90
2023/05/27 04:52:14;;;;;;;;;;;;;;;30.35;36.75;102502.04;107462;1257;124239;-88
2023/05/27 04:54:54;;;;;;;;;;;;;;;30.77;36.19;102502.38;107108;1260;59875;-91
2023/05/27 04:57:22;;;;;;;;;;;;;;;31.26;35.49;102504.78;107066;1256;124425;-90
2023/05/27 05:10:30;;;;;;;;;;;;;;;32.87;32.55;102513.35;107646;1256;124145;-91
2023/05/27 05:34:24;;;;;;;;;;;;;;;34.76;28.77;102510.95;107289;1257;124064;-93
2023/05/27 05:36:51;;;;;;;;;;;;;;;34.07;27.94;102512.51;107497;1257;59676;-91
2023/05/27 05:39:23;;;;;;;;;;;;;;;32.26;27.89;102512.91;107279;1256;124259;-90
2023/05/27 05:41:51;;;;;;;;;;;;;;;30.21;28.60;102513.44;107285;1257;60515;-91
2023/05/27 05:44:45;;;;;;;;;;;;;;;28.47;29.51;102517.83;107346;1256;59425;-91
2023/05/27 05:47:12;;;;;;;;;;;;;;;26.68;30.55;102519.92;107588;1257;74671;-92
2023/05/27 05:49:48;;;;;;;;;;;;;;;25.38;31.45;102521.17;107531;1256;65737;-92
2023/05/27 05:52:24;;;;;;;;;;;;;;;24.11;32.37;102525.10;107287;1256;124212;-95
2023/05/27 05:54:51;;;;;;;;;;;;;;;23.22;33.38;102526.97;107476;1258;62342;-93
2023/05/27 05:57:18;;;;;;;;;;;;;;;22.64;34.04;102532.56;107284;1257;124286;-90
2023/05/27 05:59:51;;;;;;;;;;;;;;;22.13;34.73;102534.99;107505;1256;73719;-90
2023/05/27 06:02:31;;;;;;;;;;;;;;;21.61;35.50;102532.35;107568;1256;65832;-91
2023/05/27 06:04:58;;;;;;;;;;;;;;;21.11;35.94;102532.42;107654;1256;72720;-88
2023/05/27 06:07:32;;;;;;;;;;;;;;;20.67;36.24;102537.48;107435;1259;60033;-88
2023/05/27 06:09:59;;;;;;;;;;;;;;;20.40;36.74;102534.77;107384;1256;124812;-89
2023/05/27 06:12:26;;;;;;;;;;;;;;;20.13;37.00;102534.25;107756;1260;74456;-88
2023/05/27 06:14:53;;;;;;;;;;;;;;;19.96;37.29;102540.42;107672;1256;125109;-89
2023/05/27 06:17:22;;;;;;;;;;;;;;;19.78;37.50;102537.66;107245;1256;72448;-88
2023/05/27 06:19:49;;;;;;;;;;;;;;;19.54;37.82;102539.04;107350;1256;60949;-78
2023/05/27 06:22:16;;;;;;;;;;;;;;;19.32;38.31;102541.52;107903;1256;124053;-77
2023/05/27 06:24:43;;;;;;;;;;;;;;;19.19;38.92;102546.80;107879;1256;75327;-85
2023/05/27 06:27:12;;;;;;;;;;;;;;;19.12;39.47;102549.52;107335;1256;124731;-88
2023/05/27 06:29:46;;;;;;;;;;;;;;;19.05;39.59;102554.73;107663;1256;72831;-91
2023/05/27 06:32:13;;;;;;;;;;;;;;;18.95;39.60;102554.36;107469;1256;61362;-87
2023/05/27 06:34:42;;;;;;;;;;;;;;;18.81;39.46;102560.32;107196;1256;124835;-89
2023/05/27 06:37:09;;;;;;;;;;;;;;;18.69;39.90;102559.52;107544;1256;74682;-88
2023/05/27 06:39:36;;;;;;;;;;;;;;;18.63;39.78;102564.01;107799;1256;124414;-89
2023/05/27 06:42:09;;;;;;;;;;;;;;;18.56;39.71;102565.13;107616;1256;73293;-88
2023/05/27 06:44:56;;;;;;;;;;;;;;;18.44;39.41;102569.64;107132;1256;124336;-92
2023/05/27 06:47:30;;;;;;;;;;;;;;;18.26;39.36;102573.37;107270;1256;61386;-88
2023/05/27 06:49:57;;;;;;;;;;;;;;;18.20;40.02;102578.02;107482;1256;73468;-88
2023/05/27 06:52:24;;;;;;;;;;;;;;;18.19;40.18;102577.48;107261;1256;124169;-88
2023/05/27 06:55:31;;;;;;;;;;;;;;;18.15;39.86;102578.27;107497;1256;71084;-94
2023/05/27 06:57:59;;;;;;;;;;;;;;;18.15;39.82;102580.57;107428;1256;124472;-95
2023/05/27 07:00:31;;;;;;;;;;;;;;;18.10;39.44;102583.65;107477;1256;61273;-93
2023/05/27 07:03:00;;;;;;;;;;;;;;;18.07;39.43;102579.32;107299;1256;124871;-92
2023/05/27 07:06:04;;;;;;;;;;;;;;;17.97;39.51;102573.41;107498;1256;65944;-91
2023/05/27 07:08:37;;;;;;;;;;;;;;;17.98;39.89;102576.45;107472;1256;71378;-92
2023/05/27 07:11:21;;;;;;;;;;;;;;;17.98;39.31;102573.96;107766;1256;61005;-94
2023/05/27 07:13:50;;;;;;;;;;;;;;;17.93;39.27;102573.47;107561;1256;61189;-93
2023/05/27 07:16:19;;;;;;;;;;;;;;;17.93;39.21;102574.71;107608;1256;124026;-93
2023/05/27 07:18:55;;;;;;;;;;;;;;;17.96;39.10;102579.23;107694;1256;65863;-93
2023/05/27 07:24:58;;;;;;;;;;;;;;;18.03;38.77;102575.31;107585;1256;61319;-93
2023/05/27 07:27:26;;;;;;;;;;;;;;;18.01;38.89;102578.47;107166;1256;124403;-93
2023/05/27 07:30:02;;;;;;;;;;;;;;;18.02;38.78;102578.33;107449;1256;74719;-93
2023/05/27 07:32:48;;;;;;;;;;;;;;;18.03;38.66;102581.00;107264;1256;67287;-93
2023/05/27 07:35:18;;;;;;;;;;;;;;;18.01;38.35;102583.79;107629;1256;72703;-93
2023/05/27 07:37:48;;;;;;;;;;;;;;;17.99;38.22;102586.77;107408;1256;59779;-93
2023/05/27 07:40:15;;;;;;;;;;;;;;;17.96;37.45;102583.13;107292;1256;124277;-93
2023/05/27 07:43:15;;;;;;;;;;;;;;;17.83;37.02;102579.10;107958;1256;73421;-93
2023/05/27 07:45:56;;;;;;;;;;;;;;;17.78;37.19;102576.12;107599;1256;124319;-93
2023/05/27 07:48:38;;;;;;;;;;;;;;;17.73;37.25;102573.14;107640;1256;72063;-93
2023/05/27 07:51:08;;;;;;;;;;;;;;;17.72;37.04;102573.13;107751;1256;124276;-93
2023/05/27 07:53:37;;;;;;;;;;;;;;;17.70;36.75;102569.88;107661;1256;61311;-94
2023/05/27 07:56:05;;;;;;;;;;;;;;;17.73;36.82;102570.84;107422;1257;73451;-94
2023/05/27 07:58:32;;;;;;;;;;;;;;;17.82;37.03;102568.93;107486;1256;124086;-93
2023/05/27 08:01:07;;;;;;;;;;;;;;;17.93;37.30;102567.45;107754;1256;72740;-92
2023/05/27 08:03:33;;;;;;;;;;;;;;;18.01;36.90;102569.42;107448;1256;124430;-93
2023/05/27 08:06:20;;;;;;;;;;;;;;;18.00;36.19;102568.15;107647;1256;59919;-92
2023/05/27 08:09:04;;;;;;;;;;;;;;;18.00;35.73;102566.90;107773;1256;124403;-93
2023/05/27 08:11:42;;;;;;;;;;;;;;;17.95;35.39;102565.53;107719;1256;65722;-93
2023/05/27 08:14:09;;;;;;;;;;;;;;;17.70;34.78;102564.91;107653;1257;72742;-91
2023/05/27 08:16:36;;;;;;;;;;;;;;;17.41;34.57;102564.00;107450;1256;124519;-93
2023/05/27 08:19:03;;;;;;;;;;;;;;;17.36;34.70;102560.14;107533;1257;60605;-93
2023/05/27 08:21:32;;;;;;;;;;;;;;;17.37;34.90;102561.08;107373;1256;124341;-93
2023/05/27 08:24:12;;;;;;;;;;;;;;;17.40;35.09;102560.60;107567;1256;66762;-92
2023/05/27 08:26:46;;;;;;;;;;;;;;;17.32;34.58;102558.44;107759;1256;124957;-94
2023/05/27 08:29:20;;;;;;;;;;;;;;;17.24;34.58;102559.11;107783;1256;62073;-91
2023/05/27 08:32:00;;;;;;;;;;;;;;;17.26;34.74;102557.58;107649;1256;61372;-92
2023/05/27 08:34:33;;;;;;;;;;;;;;;17.21;34.42;102558.70;107742;1256;124206;-91
2023/05/27 08:37:03;;;;;;;;;;;;;;;17.11;34.43;102556.30;107892;1256;65807;-94
2023/05/27 08:39:31;;;;;;;;;;;;;;;17.06;34.21;102556.71;107755;1256;124053;-91
2023/05/27 08:41:58;;;;;;;;;;;;;;;16.97;33.64;102555.23;107726;1256;60198;-92
2023/05/27 08:44:31;;;;;;;;;;;;;;;16.91;33.67;102555.40;107643;1256;61356;-92
2023/05/27 08:47:07;;;;;;;;;;;;;;;16.93;33.92;102551.17;107560;1256;123950;-92
2023/05/27 08:49:58;;;;;;;;;;;;;;;16.96;33.92;102551.29;107463;1256;65776;-90
2023/05/27 08:52:46;;;;;;;;;;;;;;;17.03;34.00;102551.13;107424;1256;125430;-94
2023/05/27 08:55:21;;;;;;;;;;;;;;;17.02;33.92;102550.54;107556;1256;61241;-94
2023/05/27 08:57:51;;;;;;;;;;;;;;;16.94;33.74;102546.97;107430;1256;124283;-92
2023/05/27 09:00:31;;;;;;;;;;;;;;;16.96;34.02;102544.71;107398;1256;74532;-94
2023/05/27 09:03:02;;;;;;;;;;;;;;;16.99;34.15;102548.16;107355;1256;124206;-94
2023/05/27 09:05:30;;;;;;;;;;;;;;;17.01;34.39;102548.59;107635;1256;71370;-93
2023/05/27 09:08:02;;;;;;;;;;;;;;;17.03;34.52;102543.66;107674;1256;59897;-93
2023/05/27 09:10:40;;;;;;;;;;;;;;;17.08;34.57;102549.81;107597;1256;124428;-93
2023/05/27 09:13:08;;;;;;;;;;;;;;;17.10;34.33;102548.11;107880;1256;74791;-93
2023/05/27 09:16:07;;;;;;;;;;;;;;;17.10;34.19;102544.05;107582;1257;124753;-94
2023/05/27 09:18:46;;;;;;;;;;;;;;;17.09;34.38;102548.63;107726;1255;71165;-94
2023/05/27 09:21:14;;;;;;;;;;;;;;;17.14;34.53;102547.89;107474;1256;124388;-94
2023/05/27 09:23:50;;;;;;;;;;;;;;;17.26;34.58;102546.07;107510;1255;60523;-94
2023/05/27 09:26:33;;;;;;;;;;;;;;;17.40;34.63;102544.98;107625;1256;74719;-94
2023/05/27 09:29:05;;;;;;;;;;;;;;;17.52;34.64;102539.09;107256;1257;124134;-93
2023/05/27 09:31:38;;;;;;;;;;;;;;;17.61;34.33;102538.41;107535;1256;70888;-94
2023/05/27 09:34:17;;;;;;;;;;;;;;;17.59;34.02;102537.30;107508;1256;125190;-94
2023/05/27 09:36:47;;;;;;;;;;;;;;;17.52;34.03;102531.79;107374;1256;61262;-94
2023/05/27 09:39:26;;;;;;;;;;;;;;;17.47;33.97;102532.04;107218;1261;124444;-94
2023/05/27 09:42:01;;;;;;;;;;;;;;;17.46;33.95;102529.71;107197;1255;263831;-93
2023/05/27 09:44:29;;;;;;;;;;;;;;;17.47;34.09;102523.00;107491;1256;71747;-92
2023/05/27 09:47:01;;;;;;;;;;;;;;;17.51;34.07;102520.23;107380;1256;123908;-93
2023/05/27 09:49:32;;;;;;;;;;;;;;;17.49;33.98;102527.11;107525;1256;60562;-92
2023/05/27 09:52:21;;;;;;;;;;;;;;;17.48;34.00;102527.80;107355;1256;124221;-92
2023/05/27 09:54:50;;;;;;;;;;;;;;;17.47;34.00;102527.07;107641;1256;67058;-83
2023/05/27 09:57:17;;;;;;;;;;;;;;;17.52;33.97;102519.91;107492;1255;124251;-93
2023/05/27 10:00:00;;;;;;;;;;;;;;;17.60;33.99;102516.20;107506;1256;59563;-92
2023/05/27 10:02:28;;;;;;;;;;;;;;;17.69;34.11;102521.04;107354;1258;59979;-93
2023/05/27 10:04:58;;;;;;;;;;;;;;;17.73;34.15;102517.04;107028;1257;124062;-92
2023/05/27 10:07:25;;;;;;;;;;;;;;;17.75;34.29;102518.14;107356;1256;67460;-93
2023/05/27 10:09:54;;;;;;;;;;;;;;;17.73;34.52;102521.30;107257;1256;124095;-92
2023/05/27 10:12:21;;;;;;;;;;;;;;;17.70;34.66;102512.55;107468;1256;59709;-93
2023/05/27 10:15:00;;;;;;;;;;;;;;;17.69;34.77;102514.63;107392;1256;124234;-90
2023/05/27 10:17:29;;;;;;;;;;;;;;;17.74;35.05;102514.05;107210;1255;73100;-92
2023/05/27 10:20:03;;;;;;;;;;;;;;;17.83;35.11;102512.33;107106;1256;67077;-92
2023/05/27 10:22:43;;;;;;;;;;;;;;;17.91;35.24;102510.20;106932;1258;124025;-92
2023/05/27 10:25:16;;;;;;;;;;;;;;;17.97;35.16;102513.00;107004;1256;60990;-93
2023/05/27 10:27:50;;;;;;;;;;;;;;;17.98;34.76;102513.92;107263;1256;124286;-93
2023/05/27 10:30:20;;;;;;;;;;;;;;;17.95;34.80;102514.55;107322;1260;74707;-93
2023/05/27 10:32:58;;;;;;;;;;;;;;;17.87;34.53;102520.06;107828;1260;126861;-95
2023/05/27 10:35:38;;;;;;;;;;;;;;;17.81;34.29;102518.13;107380;1255;72801;-92
2023/05/27 10:38:21;;;;;;;;;;;;;;;17.79;34.35;102516.65;107270;1259;60400;-93
2023/05/27 10:40:49;;;;;;;;;;;;;;;17.89;34.32;102516.56;107238;1259;124707;-93
2023/05/27 10:43:23;;;;;;;;;;;;;;;17.97;34.24;102519.05;107504;1256;73478;-92
2023/05/27 10:46:12;;;;;;;;;;;;;;;17.95;33.83;102518.30;107358;1256;124139;-93
2023/05/27 10:48:42;;;;;;;;;;;;;;;17.89;33.38;102514.79;107334;1257;71607;-93
2023/05/27 10:51:16;;;;;;;;;;;;;;;17.97;33.36;102512.99;107243;1256;124425;-93
2023/05/27 10:53:50;;;;;;;;;;;;;;;18.05;33.04;102510.71;107230;1260;61145;-93
2023/05/27 10:56:30;;;;;;;;;;;;;;;18.12;32.75;102507.13;107239;1255;74726;-93
2023/05/27 10:59:12;;;;;;;;;;;;;;;18.22;32.30;102508.21;107176;1256;124724;-92
2023/05/27 11:01:43;;;;;;;;;;;;;;;18.25;31.99;102508.11;107204;1256;71426;-93
2023/05/27 11:04:19;;;;;;;;;;;;;;;18.25;31.69;102503.86;107389;1259;124077;-93
2023/05/27 11:07:00;;;;;;;;;;;;;;;18.18;31.42;102502.29;107517;1257;60387;-93
2023/05/27 11:09:46;;;;;;;;;;;;;;;18.10;31.27;102505.66;107117;1256;125212;-92
2023/05/27 11:12:17;;;;;;;;;;;;;;;18.05;31.00;102501.81;107205;1256;67217;-93
2023/05/27 11:14:48;;;;;;;;;;;;;;;17.99;31.05;102500.27;107140;1255;124457;-91
2023/05/27 11:17:15;;;;;;;;;;;;;;;17.87;30.74;102503.02;107229;1259;61333;-94
2023/05/27 11:20:05;;;;;;;;;;;;;;;17.75;30.65;102504.66;107070;1256;61915;-94
2023/05/27 11:22:39;;;;;;;;;;;;;;;17.65;30.58;102498.21;107018;1256;124137;-93
2023/05/27 11:25:09;;;;;;;;;;;;;;;17.66;30.62;102494.33;107334;1256;67113;-93
2023/05/27 11:27:42;;;;;;;;;;;;;;;17.72;30.61;102495.52;107076;1258;124296;-94
2023/05/27 11:30:13;;;;;;;;;;;;;;;17.72;30.29;102492.33;107347;1256;62236;-93
2023/05/27 11:32:45;;;;;;;;;;;;;;;17.67;30.14;102493.48;107337;1256;60557;-92
2023/05/27 11:35:18;;;;;;;;;;;;;;;17.65;29.74;102495.91;107395;1256;72154;-93
2023/05/27 11:38:12;;;;;;;;;;;;;;;17.59;29.60;102496.99;107222;1256;67199;-93
2023/05/27 11:40:45;;;;;;;;;;;;;;;17.55;29.50;102489.80;107209;1257;124777;-93
2023/05/27 11:43:24;;;;;;;;;;;;;;;17.56;29.50;102486.45;107241;1256;61340;-93
2023/05/27 11:46:03;;;;;;;;;;;;;;;17.58;29.56;102483.49;106947;1256;124155;-92
2023/05/27 11:48:31;;;;;;;;;;;;;;;17.64;29.54;102480.96;107247;1256;74275;-94
2023/05/27 11:51:04;;;;;;;;;;;;;;;17.65;29.16;102485.08;107183;1256;124256;-93
2023/05/27 11:53:30;;;;;;;;;;;;;;;17.64;28.98;102478.31;107203;1256;71458;-92
2023/05/27 11:56:07;;;;;;;;;;;;;;;17.65;28.98;102476.91;107648;1256;60173;-83
2023/05/27 11:58:34;;;;;;;;;;;;;;;17.69;28.81;102477.35;108003;1256;124191;-93
2023/05/27 12:01:20;;;;;;;;;;;;;;;17.68;28.77;102470.06;107321;1256;74041;-93
2023/05/27 12:03:48;;;;;;;;;;;;;;;17.69;28.96;102465.29;107031;1256;124426;-93
2023/05/27 12:06:25;;;;;;;;;;;;;;;17.75;28.90;102470.03;107389;1256;73227;-94
2023/05/27 12:09:01;;;;;;;;;;;;;;;17.81;28.74;102467.33;107330;1256;124284;-93
2023/05/27 12:11:32;;;;;;;;;;;;;;;17.89;28.51;102468.60;107481;1255;62342;-92
2023/05/27 12:14:33;;;;;;;;;;;;;;;17.92;28.50;102467.61;107299;1256;73473;-94
2023/05/27 12:17:02;;;;;;;;;;;;;;;18.00;28.66;102458.38;107080;1256;124401;-92
2023/05/27 12:19:48;;;;;;;;;;;;;;;18.06;28.47;102459.02;107307;1256;73087;-93
2023/05/27 12:22:15;;;;;;;;;;;;;;;18.12;28.43;102456.65;107113;1258;124606;-93
2023/05/27 12:24:44;;;;;;;;;;;;;;;18.11;28.17;102455.23;107486;1256;59271;-93
2023/05/27 12:27:15;;;;;;;;;;;;;;;18.02;27.83;102456.11;107248;1257;124290;-92
2023/05/27 12:29:48;;;;;;;;;;;;;;;17.92;27.72;102448.60;107375;1259;65796;-94
2023/05/27 12:32:20;;;;;;;;;;;;;;;17.89;27.76;102445.35;107532;1256;71603;-93
2023/05/27 12:34:47;;;;;;;;;;;;;;;17.90;27.94;102448.02;107084;1259;124138;-94
2023/05/27 12:37:18;;;;;;;;;;;;;;;17.87;27.88;102446.38;107248;1256;59417;-92
2023/05/27 12:39:55;;;;;;;;;;;;;;;17.88;28.06;102442.84;107066;1256;124213;-93
2023/05/27 12:48:31;;;;;;;;;;;;;;;17.91;27.75;102433.30;107132;1258;61318;-93
2023/05/27 12:51:04;;;;;;;;;;;;;;;17.91;27.71;102430.45;107314;1256;124261;-94
2023/05/27 12:53:34;;;;;;;;;;;;;;;17.91;27.71;102425.48;107267;1256;74409;-94
2023/05/27 12:56:01;;;;;;;;;;;;;;;17.97;27.86;102427.04;107129;1257;67863;-93
2023/05/27 12:58:38;;;;;;;;;;;;;;;18.05;27.86;102423.84;107253;1256;124275;-92
2023/05/27 13:01:11;;;;;;;;;;;;;;;18.11;27.78;102421.30;107335;1257;61557;-83
2023/05/27 13:03:39;;;;;;;;;;;;;;;18.15;27.70;102418.34;107323;1256;124794;-83
2023/05/27 13:06:07;;;;;;;;;;;;;;;18.15;27.76;102413.38;107407;1256;74815;-83
2023/05/27 13:08:34;;;;;;;;;;;;;;;18.21;27.71;102413.50;107371;1257;67083;-83
2023/05/27 13:11:08;;;;;;;;;;;;;;;18.29;27.65;102415.08;107118;1261;124177;-83
2023/05/27 13:13:41;;;;;;;;;;;;;;;18.30;27.43;102415.64;107410;1258;59932;-83
2023/05/27 13:16:10;;;;;;;;;;;;;;;18.27;27.31;102408.46;107396;1257;124149;-83
2023/05/27 13:18:46;;;;;;;;;;;;;;;18.22;27.37;102402.16;107468;1257;72953;-83
2023/05/27 13:21:13;;;;;;;;;;;;;;;18.27;27.43;102405.79;107370;1260;124842;-83
2023/05/27 13:23:46;;;;;;;;;;;;;;;18.32;27.40;102405.91;107744;1256;71441;-83
2023/05/27 13:26:14;;;;;;;;;;;;;;;18.32;27.21;102405.71;107627;1259;61366;-83
2023/05/27 13:28:43;;;;;;;;;;;;;;;18.31;27.18;102406.77;108729;1256;124752;-83
2023/05/27 13:31:10;;;;;;;;;;;;;;;18.27;27.10;102403.30;107739;1257;74725;-83
2023/05/27 13:33:44;;;;;;;;;;;;;;;18.27;27.13;102398.52;107327;1260;124963;-84
2023/05/27 13:36:24;;;;;;;;;;;;;;;18.30;27.23;102404.80;107207;1256;72709;-83
2023/05/27 13:38:58;;;;;;;;;;;;;;;18.35;27.26;102400.42;107155;1256;125226;-83
2023/05/27 13:41:25;;;;;;;;;;;;;;;18.39;27.14;102397.67;107439;1261;61219;-83
2023/05/27 13:43:54;;;;;;;;;;;;;;;18.39;27.03;102395.02;107489;1256;74608;-83
2023/05/27 13:46:27;;;;;;;;;;;;;;;18.37;26.95;102385.55;107577;1256;125014;-83
2023/05/27 13:48:54;;;;;;;;;;;;;;;18.38;27.09;102386.45;107638;1256;71100;-83
2023/05/27 13:51:32;;;;;;;;;;;;;;;18.36;27.06;102391.41;107313;1256;124888;-83
2023/05/27 13:53:59;;;;;;;;;;;;;;;18.37;27.08;102393.38;107391;1256;60157;-83
2023/05/27 13:56:26;;;;;;;;;;;;;;;18.38;27.02;102387.52;107509;1256;74696;-83
2023/05/27 13:58:56;;;;;;;;;;;;;;;18.37;26.97;102382.70;107480;1256;124089;-83
2023/05/27 14:01:23;;;;;;;;;;;;;;;18.31;26.90;102385.44;107464;1256;72666;-83